sensor_id;sensor_type;location;lat;lon;timestamp;temperature;humidity
62154;DHT22;48140;45.486;9.226;2022-12-07T00:01:16;5.90;99.90
62154;DHT22;48140;45.486;9.226;2022-12-07T00:03:43;5.90;99.90
62154;DHT22;48140;45.486;9.226;2022-12-07T00:06:11;5.90;99.90
62154;DHT22;48140;45.486;9.226;2022-12-07T00:08:37;6.00;99.90
62154;DHT22;48140;45.486;9.226;2022-12-07T00:11:08;5.90;99.90
62154;DHT22;48140;45.486;9.226;2022-12-07T00:13:35;6.10;99.90
62154;DHT22;48140;45.486;9.226;2022-12-07T00:16:08;6.00;99.90
62154;DHT22;48140;45.486;9.226;2022-12-07T00:18:35;5.90;99.90
62154;DHT22;48140;45.486;9.226;2022-12-07T00:21:06;5.90;99.90
62154;DHT22;48140;45.486;9.226;2022-12-07T00:23:33;5.90;99.90
62154;DHT22;48140;45.486;9.226;2022-12-07T00:26:14;5.90;99.90
62154;DHT22;48140;45.486;9.226;2022-12-07T00:28:40;5.90;99.90
62154;DHT22;48140;45.486;9.226;2022-12-07T00:31:08;5.90;99.90
62154;DHT22;48140;45.486;9.226;2022-12-07T00:33:35;5.90;99.90
62154;DHT22;48140;45.486;9.226;2022-12-07T00:36:02;5.80;99.90
62154;DHT22;48140;45.486;9.226;2022-12-07T00:38:30;5.80;99.90
62154;DHT22;48140;45.486;9.226;2022-12-07T00:40:57;5.70;99.90
62154;DHT22;48140;45.486;9.226;2022-12-07T00:43:23;5.70;99.90
62154;DHT22;48140;45.486;9.226;2022-12-07T00:45:49;5.70;99.90
62154;DHT22;48140;45.486;9.226;2022-12-07T00:48:14;5.70;99.90
62154;DHT22;48140;45.486;9.226;2022-12-07T00:50:40;5.70;99.90
62154;DHT22;48140;45.486;9.226;2022-12-07T00:53:05;5.70;99.90
62154;DHT22;48140;45.486;9.226;2022-12-07T00:55:37;5.60;99.90
62154;DHT22;48140;45.486;9.226;2022-12-07T00:58:04;5.60;99.90
62154;DHT22;48140;45.486;9.226;2022-12-07T01:00:30;5.60;99.90
62154;DHT22;48140;45.486;9.226;2022-12-07T01:02:55;5.60;99.90
62154;DHT22;48140;45.486;9.226;2022-12-07T01:05:21;5.50;99.90
62154;DHT22;48140;45.486;9.226;2022-12-07T01:07:47;5.50;99.90
62154;DHT22;48140;45.486;9.226;2022-12-07T01:10:13;5.50;99.90
62154;DHT22;48140;45.486;9.226;2022-12-07T01:12:39;5.50;99.90
62154;DHT22;48140;45.486;9.226;2022-12-07T01:15:06;5.50;99.90
62154;DHT22;48140;45.486;9.226;2022-12-07T01:17:32;5.50;99.90
62154;DHT22;48140;45.486;9.226;2022-12-07T01:19:58;5.50;99.90
62154;DHT22;48140;45.486;9.226;2022-12-07T01:22:23;5.50;99.90
62154;DHT22;48140;45.486;9.226;2022-12-07T01:24:50;5.50;99.90
62154;DHT22;48140;45.486;9.226;2022-12-07T01:27:16;5.50;99.90
62154;DHT22;48140;45.486;9.226;2022-12-07T01:29:41;5.50;99.90
62154;DHT22;48140;45.486;9.226;2022-12-07T01:32:07;5.50;99.90
62154;DHT22;48140;45.486;9.226;2022-12-07T01:34:33;5.50;99.90
62154;DHT22;48140;45.486;9.226;2022-12-07T01:36:59;5.50;99.90
62154;DHT22;48140;45.486;9.226;2022-12-07T01:39:24;5.50;99.90
62154;DHT22;48140;45.486;9.226;2022-12-07T01:41:50;5.40;99.90
62154;DHT22;48140;45.486;9.226;2022-12-07T01:44:31;5.40;99.90
62154;DHT22;48140;45.486;9.226;2022-12-07T01:47:03;5.40;99.90
62154;DHT22;48140;45.486;9.226;2022-12-07T01:49:36;5.30;99.90
62154;DHT22;48140;45.486;9.226;2022-12-07T01:54:39;5.20;99.90
62154;DHT22;48140;45.486;9.226;2022-12-07T01:57:06;5.20;99.90
62154;DHT22;48140;45.486;9.226;2022-12-07T01:59:33;5.20;99.90
62154;DHT22;48140;45.486;9.226;2022-12-07T02:02:02;5.20;99.90
62154;DHT22;48140;45.486;9.226;2022-12-07T02:04:31;5.20;99.90
62154;DHT22;48140;45.486;9.226;2022-12-07T02:06:57;5.20;99.90
62154;DHT22;48140;45.486;9.226;2022-12-07T02:09:23;5.20;99.90
62154;DHT22;48140;45.486;9.226;2022-12-07T02:11:49;5.10;99.90
62154;DHT22;48140;45.486;9.226;2022-12-07T02:14:15;5.10;99.90
62154;DHT22;48140;45.486;9.226;2022-12-07T02:16:56;5.10;99.90
62154;DHT22;48140;45.486;9.226;2022-12-07T02:28:37;5.00;99.90
62154;DHT22;48140;45.486;9.226;2022-12-07T02:31:14;5.00;99.90
62154;DHT22;48140;45.486;9.226;2022-12-07T02:33:52;5.00;99.90
62154;DHT22;48140;45.486;9.226;2022-12-07T02:36:31;4.90;99.90
62154;DHT22;48140;45.486;9.226;2022-12-07T02:39:11;4.90;99.90
62154;DHT22;48140;45.486;9.226;2022-12-07T02:41:44;4.90;99.90
62154;DHT22;48140;45.486;9.226;2022-12-07T02:44:14;4.90;99.90
62154;DHT22;48140;45.486;9.226;2022-12-07T02:46:55;4.80;99.90
62154;DHT22;48140;45.486;9.226;2022-12-07T03:02:49;4.80;99.90
62154;DHT22;48140;45.486;9.226;2022-12-07T03:18:15;4.70;99.90
62154;DHT22;48140;45.486;9.226;2022-12-07T03:20:42;4.70;99.90
62154;DHT22;48140;45.486;9.226;2022-12-07T03:23:10;5.00;99.90
62154;DHT22;48140;45.486;9.226;2022-12-07T03:25:47;4.70;99.90
62154;DHT22;48140;45.486;9.226;2022-12-07T03:28:17;4.70;99.90
62154;DHT22;48140;45.486;9.226;2022-12-07T03:30:56;4.70;99.90
62154;DHT22;48140;45.486;9.226;2022-12-07T03:33:41;4.70;99.90
62154;DHT22;48140;45.486;9.226;2022-12-07T03:36:13;4.70;99.90
62154;DHT22;48140;45.486;9.226;2022-12-07T03:38:45;4.70;99.90
62154;DHT22;48140;45.486;9.226;2022-12-07T03:41:22;4.70;99.90
62154;DHT22;48140;45.486;9.226;2022-12-07T03:43:48;4.70;99.90
62154;DHT22;48140;45.486;9.226;2022-12-07T03:46:27;4.60;99.90
62154;DHT22;48140;45.486;9.226;2022-12-07T03:49:17;4.70;99.90
62154;DHT22;48140;45.486;9.226;2022-12-07T03:54:26;4.70;99.90
62154;DHT22;48140;45.486;9.226;2022-12-07T03:56:54;4.60;99.90
62154;DHT22;48140;45.486;9.226;2022-12-07T03:59:21;4.60;99.90
62154;DHT22;48140;45.486;9.226;2022-12-07T04:01:55;4.60;99.90
62154;DHT22;48140;45.486;9.226;2022-12-07T04:04:22;4.60;99.90
62154;DHT22;48140;45.486;9.226;2022-12-07T04:06:48;4.50;99.90
62154;DHT22;48140;45.486;9.226;2022-12-07T04:09:14;4.50;99.90
62154;DHT22;48140;45.486;9.226;2022-12-07T04:11:40;4.50;99.90
62154;DHT22;48140;45.486;9.226;2022-12-07T04:14:06;4.50;99.90
62154;DHT22;48140;45.486;9.226;2022-12-07T04:16:45;4.60;99.90
62154;DHT22;48140;45.486;9.226;2022-12-07T04:19:11;4.60;99.90
62154;DHT22;48140;45.486;9.226;2022-12-07T04:21:37;4.60;99.90
62154;DHT22;48140;45.486;9.226;2022-12-07T04:24:03;4.50;99.90
62154;DHT22;48140;45.486;9.226;2022-12-07T04:26:29;4.50;99.90
62154;DHT22;48140;45.486;9.226;2022-12-07T04:28:55;4.50;99.90
62154;DHT22;48140;45.486;9.226;2022-12-07T04:31:20;4.50;99.90
62154;DHT22;48140;45.486;9.226;2022-12-07T04:33:46;4.40;99.90
62154;DHT22;48140;45.486;9.226;2022-12-07T04:36:12;4.40;99.90
62154;DHT22;48140;45.486;9.226;2022-12-07T04:38:37;4.40;99.90
62154;DHT22;48140;45.486;9.226;2022-12-07T04:41:08;4.40;99.90
62154;DHT22;48140;45.486;9.226;2022-12-07T04:43:34;4.40;99.90
62154;DHT22;48140;45.486;9.226;2022-12-07T04:46:00;4.40;99.90
62154;DHT22;48140;45.486;9.226;2022-12-07T04:48:26;4.40;99.90
62154;DHT22;48140;45.486;9.226;2022-12-07T04:50:51;4.40;99.90
62154;DHT22;48140;45.486;9.226;2022-12-07T04:53:17;4.40;99.90
62154;DHT22;48140;45.486;9.226;2022-12-07T04:55:44;4.40;99.90
62154;DHT22;48140;45.486;9.226;2022-12-07T04:58:10;4.40;99.90
62154;DHT22;48140;45.486;9.226;2022-12-07T05:00:36;4.30;99.90
62154;DHT22;48140;45.486;9.226;2022-12-07T05:03:02;4.30;99.90
62154;DHT22;48140;45.486;9.226;2022-12-07T05:05:27;4.40;99.90
62154;DHT22;48140;45.486;9.226;2022-12-07T05:07:53;4.40;99.90
62154;DHT22;48140;45.486;9.226;2022-12-07T05:10:19;4.40;99.90
62154;DHT22;48140;45.486;9.226;2022-12-07T05:12:44;4.30;99.90
62154;DHT22;48140;45.486;9.226;2022-12-07T05:15:11;4.40;99.90
62154;DHT22;48140;45.486;9.226;2022-12-07T05:17:37;4.30;99.90
62154;DHT22;48140;45.486;9.226;2022-12-07T05:20:04;4.30;99.90
62154;DHT22;48140;45.486;9.226;2022-12-07T05:22:30;4.30;99.90
62154;DHT22;48140;45.486;9.226;2022-12-07T05:24:55;4.30;99.90
62154;DHT22;48140;45.486;9.226;2022-12-07T05:27:21;4.30;99.90
62154;DHT22;48140;45.486;9.226;2022-12-07T05:29:47;4.20;99.90
62154;DHT22;48140;45.486;9.226;2022-12-07T05:32:13;4.20;99.90
62154;DHT22;48140;45.486;9.226;2022-12-07T05:34:38;4.10;99.90
62154;DHT22;48140;45.486;9.226;2022-12-07T05:37:04;4.10;99.90
62154;DHT22;48140;45.486;9.226;2022-12-07T05:39:29;4.10;99.90
62154;DHT22;48140;45.486;9.226;2022-12-07T05:41:55;4.10;99.90
62154;DHT22;48140;45.486;9.226;2022-12-07T05:44:40;4.10;99.90
62154;DHT22;48140;45.486;9.226;2022-12-07T05:47:06;4.10;99.90
62154;DHT22;48140;45.486;9.226;2022-12-07T05:49:32;4.10;99.90
62154;DHT22;48140;45.486;9.226;2022-12-07T05:51:58;4.10;99.90
62154;DHT22;48140;45.486;9.226;2022-12-07T05:54:24;4.90;99.90
62154;DHT22;48140;45.486;9.226;2022-12-07T05:56:50;4.20;99.90
62154;DHT22;48140;45.486;9.226;2022-12-07T05:59:16;4.20;99.90
62154;DHT22;48140;45.486;9.226;2022-12-07T06:01:56;4.20;99.90
62154;DHT22;48140;45.486;9.226;2022-12-07T06:04:24;4.20;99.90
62154;DHT22;48140;45.486;9.226;2022-12-07T06:06:50;4.20;99.90
62154;DHT22;48140;45.486;9.226;2022-12-07T06:09:16;4.20;99.90
62154;DHT22;48140;45.486;9.226;2022-12-07T06:11:43;4.20;99.90
62154;DHT22;48140;45.486;9.226;2022-12-07T06:14:28;4.20;99.90
62154;DHT22;48140;45.486;9.226;2022-12-07T06:16:53;4.20;99.90
62154;DHT22;48140;45.486;9.226;2022-12-07T06:19:19;4.10;99.90
62154;DHT22;48140;45.486;9.226;2022-12-07T06:21:45;4.10;99.90
62154;DHT22;48140;45.486;9.226;2022-12-07T06:24:11;4.10;99.90
62154;DHT22;48140;45.486;9.226;2022-12-07T06:26:38;4.10;99.90
62154;DHT22;48140;45.486;9.226;2022-12-07T06:29:03;4.10;99.90
62154;DHT22;48140;45.486;9.226;2022-12-07T06:31:29;4.10;99.90
62154;DHT22;48140;45.486;9.226;2022-12-07T06:34:02;4.10;99.90
62154;DHT22;48140;45.486;9.226;2022-12-07T06:36:28;4.10;99.90
62154;DHT22;48140;45.486;9.226;2022-12-07T06:38:54;4.00;99.90
62154;DHT22;48140;45.486;9.226;2022-12-07T06:41:20;4.00;99.90
62154;DHT22;48140;45.486;9.226;2022-12-07T06:43:46;4.00;99.90
62154;DHT22;48140;45.486;9.226;2022-12-07T06:46:12;4.00;99.90
62154;DHT22;48140;45.486;9.226;2022-12-07T06:48:37;3.90;99.90
62154;DHT22;48140;45.486;9.226;2022-12-07T06:51:03;3.80;99.90
62154;DHT22;48140;45.486;9.226;2022-12-07T06:53:29;3.80;99.90
62154;DHT22;48140;45.486;9.226;2022-12-07T06:55:54;3.70;99.90
62154;DHT22;48140;45.486;9.226;2022-12-07T06:58:20;3.60;99.90
62154;DHT22;48140;45.486;9.226;2022-12-07T07:00:48;3.60;99.90
62154;DHT22;48140;45.486;9.226;2022-12-07T07:03:14;3.40;99.90
62154;DHT22;48140;45.486;9.226;2022-12-07T07:05:39;3.20;99.90
62154;DHT22;48140;45.486;9.226;2022-12-07T07:08:05;3.20;99.90
62154;DHT22;48140;45.486;9.226;2022-12-07T07:10:31;3.10;99.90
62154;DHT22;48140;45.486;9.226;2022-12-07T07:12:56;3.00;99.90
62154;DHT22;48140;45.486;9.226;2022-12-07T07:15:22;3.10;99.90
62154;DHT22;48140;45.486;9.226;2022-12-07T07:17:47;3.10;99.90
62154;DHT22;48140;45.486;9.226;2022-12-07T07:20:13;3.20;99.90
62154;DHT22;48140;45.486;9.226;2022-12-07T07:22:39;3.20;99.90
62154;DHT22;48140;45.486;9.226;2022-12-07T07:25:04;3.20;99.90
62154;DHT22;48140;45.486;9.226;2022-12-07T07:27:31;3.20;99.90
62154;DHT22;48140;45.486;9.226;2022-12-07T07:29:56;3.30;99.90
62154;DHT22;48140;45.486;9.226;2022-12-07T07:32:22;3.30;99.90
62154;DHT22;48140;45.486;9.226;2022-12-07T07:34:48;3.30;99.90
62154;DHT22;48140;45.486;9.226;2022-12-07T07:37:13;3.30;99.90
62154;DHT22;48140;45.486;9.226;2022-12-07T07:39:39;3.20;99.90
62154;DHT22;48140;45.486;9.226;2022-12-07T07:42:05;3.20;99.90
62154;DHT22;48140;45.486;9.226;2022-12-07T07:44:33;3.20;99.90
62154;DHT22;48140;45.486;9.226;2022-12-07T07:46:58;3.30;99.90
62154;DHT22;48140;45.486;9.226;2022-12-07T07:49:24;3.30;99.90
62154;DHT22;48140;45.486;9.226;2022-12-07T07:51:50;3.40;99.90
62154;DHT22;48140;45.486;9.226;2022-12-07T07:54:16;3.40;99.90
62154;DHT22;48140;45.486;9.226;2022-12-07T07:56:42;3.50;99.90
62154;DHT22;48140;45.486;9.226;2022-12-07T07:59:07;3.60;99.90
62154;DHT22;48140;45.486;9.226;2022-12-07T08:01:33;3.70;99.90
62154;DHT22;48140;45.486;9.226;2022-12-07T08:03:59;3.70;99.90
62154;DHT22;48140;45.486;9.226;2022-12-07T08:06:25;3.80;99.90
62154;DHT22;48140;45.486;9.226;2022-12-07T08:08:51;3.90;99.90
62154;DHT22;48140;45.486;9.226;2022-12-07T08:11:17;3.90;99.90
62154;DHT22;48140;45.486;9.226;2022-12-07T08:13:45;3.90;99.90
62154;DHT22;48140;45.486;9.226;2022-12-07T08:16:12;4.00;99.90
62154;DHT22;48140;45.486;9.226;2022-12-07T08:18:40;4.00;99.90
62154;DHT22;48140;45.486;9.226;2022-12-07T08:21:06;4.10;99.90
62154;DHT22;48140;45.486;9.226;2022-12-07T08:23:32;4.10;99.90
62154;DHT22;48140;45.486;9.226;2022-12-07T08:26:14;4.20;99.90
62154;DHT22;48140;45.486;9.226;2022-12-07T08:28:40;4.20;99.90
62154;DHT22;48140;45.486;9.226;2022-12-07T08:31:10;4.10;99.90
62154;DHT22;48140;45.486;9.226;2022-12-07T08:33:37;4.10;99.90
62154;DHT22;48140;45.486;9.226;2022-12-07T08:36:08;4.20;99.90
62154;DHT22;48140;45.486;9.226;2022-12-07T08:38:35;4.00;99.90
62154;DHT22;48140;45.486;9.226;2022-12-07T08:41:01;4.00;99.90
62154;DHT22;48140;45.486;9.226;2022-12-07T08:43:27;4.10;99.90
62154;DHT22;48140;45.486;9.226;2022-12-07T08:46:15;4.10;99.90
62154;DHT22;48140;45.486;9.226;2022-12-07T08:48:46;4.10;99.90
62154;DHT22;48140;45.486;9.226;2022-12-07T08:51:14;4.30;99.90
62154;DHT22;48140;45.486;9.226;2022-12-07T08:53:40;4.40;99.90
62154;DHT22;48140;45.486;9.226;2022-12-07T08:56:07;4.40;99.90
62154;DHT22;48140;45.486;9.226;2022-12-07T08:58:34;4.50;99.90
62154;DHT22;48140;45.486;9.226;2022-12-07T09:01:00;4.60;99.90
62154;DHT22;48140;45.486;9.226;2022-12-07T09:03:26;4.70;99.90
62154;DHT22;48140;45.486;9.226;2022-12-07T09:05:53;4.70;99.90
62154;DHT22;48140;45.486;9.226;2022-12-07T09:08:19;4.80;99.90
62154;DHT22;48140;45.486;9.226;2022-12-07T09:10:46;4.90;99.90
62154;DHT22;48140;45.486;9.226;2022-12-07T09:13:11;4.90;99.90
62154;DHT22;48140;45.486;9.226;2022-12-07T09:15:37;4.90;99.60
62154;DHT22;48140;45.486;9.226;2022-12-07T09:18:03;5.20;99.80
62154;DHT22;48140;45.486;9.226;2022-12-07T09:20:28;5.70;98.60
62154;DHT22;48140;45.486;9.226;2022-12-07T09:22:54;6.20;97.30
62154;DHT22;48140;45.486;9.226;2022-12-07T09:25:19;6.80;96.70
62154;DHT22;48140;45.486;9.226;2022-12-07T09:27:45;7.20;94.30
62154;DHT22;48140;45.486;9.226;2022-12-07T09:30:11;7.90;92.80
62154;DHT22;48140;45.486;9.226;2022-12-07T09:32:36;8.40;90.80
62154;DHT22;48140;45.486;9.226;2022-12-07T09:35:02;8.50;90.30
62154;DHT22;48140;45.486;9.226;2022-12-07T09:37:28;8.80;89.60
62154;DHT22;48140;45.486;9.226;2022-12-07T09:39:53;9.60;85.50
62154;DHT22;48140;45.486;9.226;2022-12-07T09:42:37;9.70;83.60
62154;DHT22;48140;45.486;9.226;2022-12-07T09:45:06;9.80;82.70
62154;DHT22;48140;45.486;9.226;2022-12-07T09:47:35;10.40;80.90
62154;DHT22;48140;45.486;9.226;2022-12-07T09:50:05;10.40;80.80
62154;DHT22;48140;45.486;9.226;2022-12-07T09:52:32;11.00;78.40
62154;DHT22;48140;45.486;9.226;2022-12-07T09:54:58;11.40;77.10
62154;DHT22;48140;45.486;9.226;2022-12-07T09:57:30;11.70;77.10
62154;DHT22;48140;45.486;9.226;2022-12-07T10:00:00;11.60;76.50
62154;DHT22;48140;45.486;9.226;2022-12-07T10:02:39;11.70;76.30
62154;DHT22;48140;45.486;9.226;2022-12-07T10:05:14;12.00;74.80
62154;DHT22;48140;45.486;9.226;2022-12-07T10:07:41;12.30;74.00
62154;DHT22;48140;45.486;9.226;2022-12-07T10:10:15;12.60;73.20
62154;DHT22;48140;45.486;9.226;2022-12-07T10:13:03;12.70;72.50
62154;DHT22;48140;45.486;9.226;2022-12-07T10:15:51;12.80;71.50
62154;DHT22;48140;45.486;9.226;2022-12-07T10:21:15;13.20;70.00
62154;DHT22;48140;45.486;9.226;2022-12-07T10:24:05;13.20;69.50
62154;DHT22;48140;45.486;9.226;2022-12-07T10:26:38;13.20;71.10
62154;DHT22;48140;45.486;9.226;2022-12-07T10:29:24;13.20;70.00
62154;DHT22;48140;45.486;9.226;2022-12-07T10:32:05;13.60;69.90
62154;DHT22;48140;45.486;9.226;2022-12-07T10:34:35;13.50;68.30
62154;DHT22;48140;45.486;9.226;2022-12-07T10:39:53;13.50;68.20
62154;DHT22;48140;45.486;9.226;2022-12-07T10:42:27;13.90;67.90
62154;DHT22;48140;45.486;9.226;2022-12-07T10:48:01;13.90;65.50
62154;DHT22;48140;45.486;9.226;2022-12-07T10:50:53;13.90;66.00
62154;DHT22;48140;45.486;9.226;2022-12-07T11:00:04;14.30;64.10
62154;DHT22;48140;45.486;9.226;2022-12-07T11:15:51;14.20;63.80
62154;DHT22;48140;45.486;9.226;2022-12-07T11:18:40;14.70;61.80
62154;DHT22;48140;45.486;9.226;2022-12-07T11:21:29;14.20;60.80
62154;DHT22;48140;45.486;9.226;2022-12-07T11:24:19;14.10;62.60
62154;DHT22;48140;45.486;9.226;2022-12-07T11:27:22;14.50;62.50
62154;DHT22;48140;45.486;9.226;2022-12-07T11:30:13;14.90;61.10
62154;DHT22;48140;45.486;9.226;2022-12-07T11:38:01;14.80;60.00
62154;DHT22;48140;45.486;9.226;2022-12-07T11:40:34;14.70;60.10
62154;DHT22;48140;45.486;9.226;2022-12-07T11:43:22;15.10;58.60
62154;DHT22;48140;45.486;9.226;2022-12-07T11:46:08;15.70;57.80
62154;DHT22;48140;45.486;9.226;2022-12-07T11:48:47;15.70;56.80
62154;DHT22;48140;45.486;9.226;2022-12-07T11:51:16;15.70;55.40
62154;DHT22;48140;45.486;9.226;2022-12-07T11:53:48;15.40;56.80
62154;DHT22;48140;45.486;9.226;2022-12-07T11:56:17;15.90;54.50
62154;DHT22;48140;45.486;9.226;2022-12-07T11:58:49;14.70;57.90
62154;DHT22;48140;45.486;9.226;2022-12-07T12:02:02;15.10;58.20
62154;DHT22;48140;45.486;9.226;2022-12-07T12:06:42;15.20;57.40
62154;DHT22;48140;45.486;9.226;2022-12-07T12:09:29;14.90;58.80
62154;DHT22;48140;45.486;9.226;2022-12-07T12:12:38;15.80;55.90
62154;DHT22;48140;45.486;9.226;2022-12-07T12:15:34;16.10;54.10
62154;DHT22;48140;45.486;9.226;2022-12-07T12:20:51;16.70;52.30
62154;DHT22;48140;45.486;9.226;2022-12-07T12:23:37;16.10;52.60
62154;DHT22;48140;45.486;9.226;2022-12-07T12:26:07;15.80;52.10
62154;DHT22;48140;45.486;9.226;2022-12-07T12:28:58;16.00;51.90
62154;DHT22;48140;45.486;9.226;2022-12-07T12:33:58;16.30;52.20
62154;DHT22;48140;45.486;9.226;2022-12-07T12:36:28;16.90;50.70
62154;DHT22;48140;45.486;9.226;2022-12-07T12:46:59;17.50;51.40
62154;DHT22;48140;45.486;9.226;2022-12-07T12:51:55;17.60;47.40
62154;DHT22;48140;45.486;9.226;2022-12-07T12:54:27;17.70;46.80
62154;DHT22;48140;45.486;9.226;2022-12-07T12:56:59;17.50;46.90
62154;DHT22;48140;45.486;9.226;2022-12-07T12:59:32;17.30;47.90
62154;DHT22;48140;45.486;9.226;2022-12-07T13:02:36;16.60;50.10
62154;DHT22;48140;45.486;9.226;2022-12-07T13:10:34;16.60;51.00
62154;DHT22;48140;45.486;9.226;2022-12-07T13:15:55;16.50;51.10
62154;DHT22;48140;45.486;9.226;2022-12-07T13:18:40;16.90;49.50
62154;DHT22;48140;45.486;9.226;2022-12-07T13:26:20;16.30;52.90
62154;DHT22;48140;45.486;9.226;2022-12-07T13:29:01;16.10;51.70
62154;DHT22;48140;45.486;9.226;2022-12-07T13:34:27;15.80;53.50
62154;DHT22;48140;45.486;9.226;2022-12-07T13:36:52;16.00;53.60
62154;DHT22;48140;45.486;9.226;2022-12-07T13:39:22;15.90;53.50
62154;DHT22;48140;45.486;9.226;2022-12-07T13:41:58;15.80;53.90
62154;DHT22;48140;45.486;9.226;2022-12-07T13:44:26;15.90;53.80
62154;DHT22;48140;45.486;9.226;2022-12-07T13:47:15;15.90;54.50
62154;DHT22;48140;45.486;9.226;2022-12-07T13:49:54;16.20;53.10
62154;DHT22;48140;45.486;9.226;2022-12-07T13:52:26;16.40;52.80
62154;DHT22;48140;45.486;9.226;2022-12-07T13:57:33;16.50;52.40
62154;DHT22;48140;45.486;9.226;2022-12-07T14:00:01;16.20;53.30
62154;DHT22;48140;45.486;9.226;2022-12-07T14:02:30;16.30;53.50
62154;DHT22;48140;45.486;9.226;2022-12-07T14:05:24;16.20;54.60
62154;DHT22;48140;45.486;9.226;2022-12-07T14:10:38;15.50;56.80
62154;DHT22;48140;45.486;9.226;2022-12-07T14:13:27;14.80;58.30
62154;DHT22;48140;45.486;9.226;2022-12-07T14:15:54;15.30;58.90
62154;DHT22;48140;45.486;9.226;2022-12-07T14:18:29;15.60;55.80
62154;DHT22;48140;45.486;9.226;2022-12-07T14:21:15;15.60;57.20
62154;DHT22;48140;45.486;9.226;2022-12-07T14:23:42;16.00;54.80
62154;DHT22;48140;45.486;9.226;2022-12-07T14:26:16;15.90;55.70
62154;DHT22;48140;45.486;9.226;2022-12-07T14:28:44;16.00;55.20
62154;DHT22;48140;45.486;9.226;2022-12-07T14:31:15;16.10;53.90
62154;DHT22;48140;45.486;9.226;2022-12-07T14:33:42;16.00;54.40
62154;DHT22;48140;45.486;9.226;2022-12-07T14:36:11;15.90;55.20
62154;DHT22;48140;45.486;9.226;2022-12-07T14:38:38;15.90;55.00
62154;DHT22;48140;45.486;9.226;2022-12-07T14:41:04;16.20;54.80
62154;DHT22;48140;45.486;9.226;2022-12-07T14:43:50;16.00;54.70
62154;DHT22;48140;45.486;9.226;2022-12-07T14:46:16;15.40;58.80
62154;DHT22;48140;45.486;9.226;2022-12-07T14:48:44;15.30;57.70
62154;DHT22;48140;45.486;9.226;2022-12-07T14:51:12;15.20;57.60
62154;DHT22;48140;45.486;9.226;2022-12-07T14:53:44;14.80;59.30
62154;DHT22;48140;45.486;9.226;2022-12-07T14:56:11;14.00;61.80
62154;DHT22;48140;45.486;9.226;2022-12-07T14:58:36;13.30;66.40
62154;DHT22;48140;45.486;9.226;2022-12-07T15:01:03;13.10;67.90
62154;DHT22;48140;45.486;9.226;2022-12-07T15:03:28;13.40;66.80
62154;DHT22;48140;45.486;9.226;2022-12-07T15:05:55;13.30;67.10
62154;DHT22;48140;45.486;9.226;2022-12-07T15:08:20;13.30;66.40
62154;DHT22;48140;45.486;9.226;2022-12-07T15:10:46;13.10;67.50
62154;DHT22;48140;45.486;9.226;2022-12-07T15:13:12;12.70;69.50
62154;DHT22;48140;45.486;9.226;2022-12-07T15:15:57;12.20;72.70
62154;DHT22;48140;45.486;9.226;2022-12-07T15:18:23;11.60;75.70
62154;DHT22;48140;45.486;9.226;2022-12-07T15:20:49;11.10;78.30
62154;DHT22;48140;45.486;9.226;2022-12-07T15:23:15;10.60;80.80
62154;DHT22;48140;45.486;9.226;2022-12-07T15:25:43;9.60;86.00
62154;DHT22;48140;45.486;9.226;2022-12-07T15:28:09;9.10;89.20
62154;DHT22;48140;45.486;9.226;2022-12-07T15:30:37;9.00;90.20
62154;DHT22;48140;45.486;9.226;2022-12-07T15:33:03;8.80;90.80
62154;DHT22;48140;45.486;9.226;2022-12-07T15:35:28;8.70;91.70
62154;DHT22;48140;45.486;9.226;2022-12-07T15:37:54;8.40;92.10
62154;DHT22;48140;45.486;9.226;2022-12-07T15:40:20;7.70;94.90
62154;DHT22;48140;45.486;9.226;2022-12-07T15:42:45;7.60;95.50
62154;DHT22;48140;45.486;9.226;2022-12-07T15:45:11;7.60;96.00
62154;DHT22;48140;45.486;9.226;2022-12-07T15:47:40;7.50;96.30
62154;DHT22;48140;45.486;9.226;2022-12-07T15:52:42;7.40;97.30
62154;DHT22;48140;45.486;9.226;2022-12-07T15:55:09;7.40;97.00
62154;DHT22;48140;45.486;9.226;2022-12-07T15:57:36;7.40;97.70
62154;DHT22;48140;45.486;9.226;2022-12-07T16:00:04;7.40;97.40
62154;DHT22;48140;45.486;9.226;2022-12-07T16:02:30;7.40;98.00
62154;DHT22;48140;45.486;9.226;2022-12-07T16:04:55;7.40;97.90
62154;DHT22;48140;45.486;9.226;2022-12-07T16:07:21;7.20;98.30
62154;DHT22;48140;45.486;9.226;2022-12-07T16:09:50;7.10;98.80
62154;DHT22;48140;45.486;9.226;2022-12-07T16:12:15;7.20;98.90
62154;DHT22;48140;45.486;9.226;2022-12-07T16:14:41;7.90;99.90
62154;DHT22;48140;45.486;9.226;2022-12-07T16:17:08;7.00;99.90
62154;DHT22;48140;45.486;9.226;2022-12-07T16:19:35;7.10;99.50
62154;DHT22;48140;45.486;9.226;2022-12-07T16:22:01;7.20;99.00
62154;DHT22;48140;45.486;9.226;2022-12-07T16:24:27;7.10;99.00
62154;DHT22;48140;45.486;9.226;2022-12-07T16:26:53;7.20;99.00
62154;DHT22;48140;45.486;9.226;2022-12-07T16:29:20;7.20;98.60
62154;DHT22;48140;45.486;9.226;2022-12-07T16:31:47;7.20;99.10
62154;DHT22;48140;45.486;9.226;2022-12-07T16:34:13;7.10;98.90
62154;DHT22;48140;45.486;9.226;2022-12-07T16:36:39;7.10;99.20
62154;DHT22;48140;45.486;9.226;2022-12-07T16:39:05;7.10;99.10
62154;DHT22;48140;45.486;9.226;2022-12-07T16:41:31;7.10;99.20
62154;DHT22;48140;45.486;9.226;2022-12-07T16:43:57;7.00;99.20
62154;DHT22;48140;45.486;9.226;2022-12-07T16:46:22;7.00;99.70
62154;DHT22;48140;45.486;9.226;2022-12-07T16:48:49;7.00;99.90
62154;DHT22;48140;45.486;9.226;2022-12-07T16:51:16;6.90;99.90
62154;DHT22;48140;45.486;9.226;2022-12-07T16:53:42;6.80;99.90
62154;DHT22;48140;45.486;9.226;2022-12-07T16:56:12;6.80;99.90
62154;DHT22;48140;45.486;9.226;2022-12-07T16:58:40;6.60;99.90
62154;DHT22;48140;45.486;9.226;2022-12-07T17:01:14;6.60;99.90
62154;DHT22;48140;45.486;9.226;2022-12-07T17:03:40;6.60;99.90
62154;DHT22;48140;45.486;9.226;2022-12-07T17:06:15;6.60;99.90
62154;DHT22;48140;45.486;9.226;2022-12-07T17:08:41;6.50;99.90
62154;DHT22;48140;45.486;9.226;2022-12-07T17:11:21;6.50;99.90
62154;DHT22;48140;45.486;9.226;2022-12-07T17:13:48;6.50;99.90
62154;DHT22;48140;45.486;9.226;2022-12-07T17:16:33;6.40;99.90
62154;DHT22;48140;45.486;9.226;2022-12-07T17:18:59;6.20;99.90
62154;DHT22;48140;45.486;9.226;2022-12-07T17:21:24;6.20;99.90
62154;DHT22;48140;45.486;9.226;2022-12-07T17:23:50;6.20;99.90
62154;DHT22;48140;45.486;9.226;2022-12-07T17:26:19;6.20;99.90
62154;DHT22;48140;45.486;9.226;2022-12-07T17:28:46;6.20;99.90
62154;DHT22;48140;45.486;9.226;2022-12-07T17:31:13;6.20;99.90
62154;DHT22;48140;45.486;9.226;2022-12-07T17:33:39;6.30;99.90
62154;DHT22;48140;45.486;9.226;2022-12-07T17:36:17;6.20;99.90
62154;DHT22;48140;45.486;9.226;2022-12-07T17:38:43;6.10;99.90
62154;DHT22;48140;45.486;9.226;2022-12-07T17:41:13;6.00;99.90
62154;DHT22;48140;45.486;9.226;2022-12-07T17:44:00;5.90;99.90
62154;DHT22;48140;45.486;9.226;2022-12-07T17:46:26;5.80;99.90
62154;DHT22;48140;45.486;9.226;2022-12-07T17:48:54;5.80;99.90
62154;DHT22;48140;45.486;9.226;2022-12-07T17:51:19;6.30;99.90
62154;DHT22;48140;45.486;9.226;2022-12-07T17:54:04;5.60;99.90
62154;DHT22;48140;45.486;9.226;2022-12-07T17:56:30;5.60;99.90